| time (UTC) | temp C | wind direction | speed KPH | gust KPH | rain 1hr cm | rain 24hr cm | rain mn cm | humidity % | barometer mb |
| 20260505224433 | 23 | 270 | 8.0 | 12.9 | 0.00 | 0.66 | 0.66 | 32 | 1009.8 |
| 20260505223930 | 23 | 212 | 4.8 | 8.0 | 0.00 | 0.66 | 0.66 | 33 | 1010.0 |
| 20260505223427 | 23 | 247 | 4.8 | 8.0 | 0.00 | 0.66 | 0.66 | 32 | 1009.7 |
| 20260505222923 | 23 | 159 | 3.2 | 4.8 | 0.00 | 0.66 | 0.66 | 34 | 1009.8 |
| 20260505222420 | 22 | 301 | 3.2 | 8.0 | 0.00 | 0.66 | 0.66 | 34 | 1010.0 |
| 20260505221916 | 22 | 59 | 3.2 | 3.2 | 0.00 | 0.66 | 0.66 | 34 | 1009.7 |
| 20260505221413 | 22 | 239 | 1.6 | 1.6 | 0.00 | 0.66 | 0.66 | 35 | 1010.0 |
| 20260505220910 | 22 | 191 | 6.4 | 9.7 | 0.00 | 0.66 | 0.66 | 34 | 1010.1 |
| 20260505220407 | 22 | 244 | 8.0 | 9.7 | 0.00 | 0.66 | 0.66 | 35 | 1010.0 |
| 20260505215905 | 23 | 170 | 6.4 | 8.0 | 0.00 | 0.66 | 0.66 | 34 | 1010.4 |
| 20260505215403 | 23 | 114 | 1.6 | 3.2 | 0.00 | 0.66 | 0.66 | 35 | 1010.1 |
| 20260505214901 | 23 | 17 | 1.6 | 1.6 | 0.00 | 0.66 | 0.66 | 35 | 1010.1 |
| 20260505214358 | 23 | 110 | 3.2 | 8.0 | 0.00 | 0.66 | 0.66 | 35 | 1010.3 |
| 20260505213855 | 23 | 268 | 4.8 | 8.0 | 0.00 | 0.66 | 0.66 | 38 | 1010.2 |
| 20260505213353 | 23 | 254 | 3.2 | 4.8 | 0.00 | 0.66 | 0.66 | 40 | 1010.4 |
| 20260505212848 | 22 | 76 | 1.6 | 1.6 | 0.00 | 0.66 | 0.66 | 41 | 1010.6 |
| 20260505212346 | 21 | 305 | 1.6 | 3.2 | 0.00 | 0.66 | 0.66 | 43 | 1010.4 |
| 20260505211842 | 21 | 57 | 1.6 | 1.6 | 0.00 | 0.66 | 0.66 | 47 | 1010.8 |
| 20260505211339 | 21 | 221 | 3.2 | 4.8 | 0.00 | 0.66 | 0.66 | 45 | 1010.3 |
| 20260505210836 | 21 | 98 | 0.0 | 1.6 | 0.00 | 0.66 | 0.66 | 48 | 1010.7 |
| 20260505210333 | 21 | 80 | 1.6 | 1.6 | 0.00 | 0.66 | 0.66 | 48 | 1010.6 |
| 20260505205829 | 21 | 320 | 4.8 | 8.0 | 0.00 | 0.66 | 0.66 | 49 | 1010.7 |
| 20260505205328 | 21 | 180 | 3.2 | 4.8 | 0.00 | 0.66 | 0.66 | 50 | 1010.7 |
| 20260505204824 | 21 | 181 | 1.6 | 1.6 | 0.00 | 0.66 | 0.66 | 49 | 1010.6 |
| 20260505204322 | 22 | 235 | 4.8 | 8.0 | 0.00 | 0.66 | 0.66 | 47 | 1010.7 |
| 20260505203819 | 21 | 177 | 1.6 | 3.2 | 0.00 | 0.66 | 0.66 | 48 | 1010.8 |
| 20260505203316 | 21 | 341 | 3.2 | 3.2 | 0.00 | 0.66 | 0.66 | 48 | 1010.8 |
| 20260505202812 | 21 | 172 | 12.9 | 17.7 | 0.00 | 0.66 | 0.66 | 44 | 1010.7 |
| 20260505202308 | 21 | 189 | 4.8 | 4.8 | 0.00 | 0.66 | 0.66 | 47 | 1010.9 |
| 20260505201805 | 21 | 168 | 6.4 | 8.0 | 0.00 | 0.66 | 0.66 | 49 | 1010.7 |
| 20260505201303 | 21 | 165 | 4.8 | 8.0 | 0.00 | 0.66 | 0.66 | 47 | 1010.9 |
| 20260505200801 | 22 | 326 | 4.8 | 8.0 | 0.00 | 0.66 | 0.66 | 46 | 1011.0 |
| 20260505200257 | 21 | 187 | 1.6 | 3.2 | 0.00 | 0.66 | 0.66 | 46 | 1011.0 |
| 20260505195753 | 21 | 229 | 8.0 | 9.7 | 0.00 | 0.66 | 0.66 | 50 | 1011.3 |
| 20260505195250 | 19 | 213 | 8.0 | 12.9 | 0.00 | 0.66 | 0.66 | 55 | 1011.2 |
| 20260505194747 | 20 | 159 | 9.7 | 11.3 | 0.00 | 0.66 | 0.66 | 55 | 1011.0 |
| 20260505194244 | 20 | 95 | 1.6 | 3.2 | 0.00 | 0.66 | 0.66 | 55 | 1011.2 |
| 20260505193739 | 20 | 150 | 1.6 | 1.6 | 0.00 | 0.66 | 0.66 | 54 | 1011.2 |
| 20260505193237 | 21 | 132 | 1.6 | 1.6 | 0.00 | 0.66 | 0.66 | 53 | 1011.3 |
| 20260505192736 | 20 | 213 | 4.8 | 4.8 | 0.00 | 0.66 | 0.66 | 55 | 1011.3 |
| 20260505192233 | 20 | 156 | 4.8 | 4.8 | 0.00 | 0.66 | 0.66 | 54 | 1011.2 |
| 20260505191731 | 20 | 189 | 8.0 | 9.7 | 0.00 | 0.66 | 0.66 | 55 | 1011.4 |
| 20260505191229 | 20 | 184 | 4.8 | 11.3 | 0.00 | 0.66 | 0.66 | 54 | 1011.2 |
| 20260505190725 | 20 | 155 | 6.4 | 8.0 | 0.00 | 0.66 | 0.66 | 53 | 1011.5 |
| 20260505190225 | 20 | 166 | 3.2 | 3.2 | 0.00 | 0.66 | 0.66 | 55 | 1011.7 |
| 20260505185722 | 19 | 178 | 4.8 | 4.8 | 0.00 | 0.66 | 0.66 | 57 | 1011.7 |
| 20260505185219 | 18 | 171 | 8.0 | 9.7 | 0.00 | 0.66 | 0.66 | 61 | 1012.0 |
| 20260505184714 | 18 | 80 | 1.6 | 1.6 | 0.00 | 0.66 | 0.66 | 62 | 1011.9 |
| 20260505184212 | 18 | 165 | 8.0 | 11.3 | 0.00 | 0.66 | 0.66 | 60 | 1011.7 |
| 20260505183709 | 19 | 168 | 6.4 | 9.7 | 0.00 | 0.66 | 0.66 | 60 | 1012.1 |
| 20260505183206 | 18 | 185 | 4.8 | 8.0 | 0.00 | 0.66 | 0.66 | 58 | 1012.2 |
| 20260505182702 | 18 | 173 | 4.8 | 8.0 | 0.00 | 0.66 | 0.66 | 60 | 1012.2 |
| 20260505182159 | 18 | 162 | 3.2 | 4.8 | 0.00 | 0.66 | 0.66 | 61 | 1012.0 |
| 20260505181656 | 18 | 209 | 4.8 | 4.8 | 0.00 | 0.66 | 0.66 | 59 | 1012.3 |
| 20260505181153 | 18 | 198 | 3.2 | 4.8 | 0.00 | 0.66 | 0.66 | 60 | 1012.2 |
| 20260505180649 | 18 | 202 | 1.6 | 4.8 | 0.00 | 0.66 | 0.66 | 62 | 1012.4 |
| 20260505180147 | 18 | 170 | 6.4 | 11.3 | 0.00 | 0.66 | 0.66 | 60 | 1012.4 |
| 20260505175642 | 18 | 104 | 1.6 | 1.6 | 0.00 | 0.66 | 0.66 | 63 | 1012.4 |
| 20260505175139 | 16 | 185 | 4.8 | 4.8 | 0.00 | 0.66 | 0.66 | 67 | 1012.4 |
| 20260505174636 | 17 | 208 | 6.4 | 11.3 | 0.00 | 0.66 | 0.66 | 66 | 1012.5 |
| 20260505174132 | 17 | 172 | 8.0 | 11.3 | 0.00 | 0.66 | 0.66 | 67 | 1012.3 |
| 20260505173629 | 17 | 189 | 4.8 | 4.8 | 0.00 | 0.66 | 0.66 | 68 | 1012.5 |
| 20260505173126 | 17 | 212 | 4.8 | 4.8 | 0.00 | 0.66 | 0.66 | 69 | 1012.5 |
| 20260505172623 | 17 | 96 | 1.6 | 1.6 | 0.00 | 0.66 | 0.66 | 71 | 1012.3 |
| 20260505172120 | 16 | 165 | 8.0 | 9.7 | 0.00 | 0.66 | 0.66 | 70 | 1012.2 |
| 20260505171615 | 17 | 183 | 1.6 | 3.2 | 0.00 | 0.66 | 0.66 | 71 | 1012.3 |
| 20260505171112 | 17 | 66 | 3.2 | 3.2 | 0.00 | 0.66 | 0.66 | 72 | 1012.6 |
| 20260505170609 | 16 | 94 | 1.6 | 1.6 | 0.00 | 0.66 | 0.66 | 73 | 1012.2 |
| 20260505170105 | 16 | 210 | 3.2 | 4.8 | 0.00 | 0.66 | 0.66 | 72 | 1012.4 |
| 20260505165600 | 16 | 149 | 3.2 | 4.8 | 0.00 | 0.66 | 0.66 | 73 | 1012.2 |
| 20260505165056 | 16 | 189 | 1.6 | 1.6 | 0.00 | 0.66 | 0.66 | 73 | 1012.2 |
| 20260505164552 | 16 | 161 | 3.2 | 3.2 | 0.00 | 0.66 | 0.66 | 75 | 1012.5 |
| 20260505164050 | 16 | 188 | 3.2 | 3.2 | 0.00 | 0.66 | 0.66 | 76 | 1012.3 |
| 20260505163548 | 15 | 167 | 1.6 | 3.2 | 0.00 | 0.66 | 0.66 | 78 | 1012.2 |
| 20260505163045 | 15 | 158 | 1.6 | 3.2 | 0.00 | 0.66 | 0.66 | 79 | 1012.1 |
| 20260505162543 | 15 | 123 | 1.6 | 1.6 | 0.00 | 0.66 | 0.66 | 80 | 1012.3 |
| 20260505162041 | 15 | 168 | 1.6 | 3.2 | 0.00 | 0.66 | 0.66 | 81 | 1012.4 |
| 20260505161537 | 15 | 229 | 3.2 | 4.8 | 0.00 | 0.66 | 0.66 | 81 | 1012.3 |
| 20260505161035 | 15 | 155 | 4.8 | 4.8 | 0.00 | 0.66 | 0.66 | 82 | 1012.3 |
| 20260505160533 | 15 | 132 | 1.6 | 3.2 | 0.00 | 0.66 | 0.66 | 85 | 1012.4 |
| 20260505153009 | 14 | 101 | 1.6 | 1.6 | 0.00 | 0.66 | 0.66 | 88 | 1012.2 |
| 20260505152506 | 14 | 179 | 1.6 | 3.2 | 0.00 | 0.66 | 0.66 | 89 | 1012.3 |
| 20260505152002 | 14 | 168 | 1.6 | 3.2 | 0.00 | 0.66 | 0.66 | 89 | 1012.2 |
| 20260505151457 | 14 | 165 | 1.6 | 1.6 | 0.00 | 0.66 | 0.66 | 90 | 1012.0 |
| 20260505150955 | 14 | 136 | 0.0 | 1.6 | 0.00 | 0.66 | 0.66 | 89 | 1012.0 |
| 20260505150451 | 14 | 161 | 3.2 | 3.2 | 0.00 | 0.66 | 0.66 | 90 | 1012.1 |
| 20260505140422 | 13 | 98 | 0.0 | 0.0 | 0.00 | 0.66 | 0.66 | 94 | 1012.0 |
| 20260505124835 | 12 | 84 | 0.0 | 0.0 | 0.00 | 0.66 | 0.66 | 94 | 1011.2 |
| 20260505124332 | 12 | 89 | 0.0 | 0.0 | 0.00 | 0.66 | 0.66 | 94 | 1011.0 |
| 20260505123828 | 12 | 99 | 0.0 | 0.0 | 0.00 | 0.66 | 0.66 | 94 | 1011.2 |
| 20260505123325 | 12 | 93 | 0.0 | 0.0 | 0.00 | 0.66 | 0.66 | 94 | 1010.7 |
| 20260505122821 | 12 | 97 | 0.0 | 0.0 | 0.00 | 0.66 | 0.66 | 94 | 1011.1 |
| 20260505122318 | 12 | 93 | 0.0 | 0.0 | 0.00 | 0.66 | 0.66 | 94 | 1010.9 |
| 20260505121815 | 12 | 113 | 0.0 | 0.0 | 0.00 | 0.66 | 0.66 | 94 | 1011.0 |
| 20260505121312 | 12 | 105 | 0.0 | 0.0 | 0.00 | 0.66 | 0.66 | 94 | 1010.9 |
| 20260505120808 | 12 | 297 | 0.0 | 1.6 | 0.00 | 0.66 | 0.66 | 94 | 1010.9 |
| 20260505120304 | 12 | 338 | 0.0 | 0.0 | 0.00 | 0.66 | 0.66 | 94 | 1010.9 |
| 20260505115802 | 12 | 338 | 0.0 | 0.0 | 0.00 | 0.66 | 0.66 | 94 | 1011.0 |
| 20260505115300 | 12 | 56 | 1.6 | 1.6 | 0.00 | 0.66 | 0.66 | 94 | 1010.4 |
| 20260505114757 | 12 | 86 | 0.0 | 0.0 | 0.00 | 0.66 | 0.66 | 94 | 1010.2 |
| 20260505114254 | 12 | 313 | 0.0 | 0.0 | 0.00 | 0.66 | 0.66 | 94 | 1010.3 |
| 20260505113750 | 13 | 313 | 0.0 | 1.6 | 0.18 | 0.66 | 0.66 | 94 | 1010.7 |
| 20260505113247 | 13 | 290 | 4.8 | 4.8 | 0.18 | 0.66 | 0.66 | 94 | 1010.8 |
| 20260505112743 | 12 | 335 | 0.0 | 1.6 | 0.18 | 0.66 | 0.66 | 94 | 1010.8 |
| 20260505112241 | 13 | 25 | 0.0 | 0.0 | 0.00 | 0.64 | 0.64 | 94 | 1010.9 |
| 20260505111740 | 12 | 80 | 0.0 | 0.0 | 0.00 | 0.64 | 0.64 | 94 | 1010.4 |
| 20260505111237 | 13 | 44 | 1.6 | 1.6 | 0.13 | 0.64 | 0.64 | 94 | 1011.0 |
| 20260505110732 | 13 | 11 | 3.2 | 3.2 | 0.13 | 0.64 | 0.64 | 94 | 1011.0 |
| 20260505110231 | 13 | 89 | 0.0 | 0.0 | 0.00 | 0.61 | 0.61 | 94 | 1011.1 |
| 20260505102206 | 13 | 274 | 4.8 | 4.8 | 0.18 | 0.56 | 0.56 | 94 | 1011.4 |
| 20260505101705 | 13 | 138 | 1.6 | 1.6 | 0.18 | 0.56 | 0.56 | 94 | 1011.7 |
| 20260505101201 | 13 | 309 | 6.4 | 8.0 | 0.00 | 0.53 | 0.53 | 94 | 1011.5 |
| 20260505100657 | 13 | 83 | 0.0 | 1.6 | 0.00 | 0.53 | 0.53 | 94 | 1011.5 |
| 20260505100154 | 13 | 333 | 3.2 | 3.2 | 0.00 | 0.53 | 0.53 | 94 | 1011.3 |
| 20260505095649 | 13 | 84 | 0.0 | 0.0 | 0.13 | 0.53 | 0.53 | 94 | 1011.5 |
| 20260505095147 | 13 | 81 | 0.0 | 0.0 | 0.13 | 0.53 | 0.53 | 94 | 1011.1 |
| 20260505094643 | 13 | 13 | 0.0 | 0.0 | 0.00 | 0.51 | 0.51 | 94 | 1011.4 |
| 20260505094139 | 13 | 94 | 0.0 | 0.0 | 0.18 | 0.51 | 0.51 | 94 | 1011.7 |
| 20260505093636 | 13 | 94 | 0.0 | 0.0 | 0.18 | 0.51 | 0.51 | 94 | 1011.7 |
| 20260505093133 | 13 | 99 | 0.0 | 0.0 | 0.18 | 0.48 | 0.48 | 94 | 1011.7 |
| 20260505092630 | 13 | 106 | 0.0 | 0.0 | 0.18 | 0.48 | 0.48 | 94 | 1011.9 |
| 20260505092129 | 13 | 80 | 0.0 | 1.6 | 0.18 | 0.48 | 0.48 | 94 | 1012.4 |
| 20260505091625 | 13 | 93 | 0.0 | 1.6 | 0.13 | 0.46 | 0.46 | 94 | 1011.9 |
| 20260505091124 | 13 | 78 | 0.0 | 0.0 | 0.30 | 0.46 | 0.46 | 93 | 1011.9 |
| 20260505090621 | 13 | 39 | 1.6 | 1.6 | 0.18 | 0.43 | 0.43 | 93 | 1011.7 |
| 20260505090119 | 13 | 93 | 0.0 | 0.0 | 0.13 | 0.41 | 0.41 | 93 | 1012.1 |
| 20260505085616 | 13 | 94 | 0.0 | 0.0 | 0.30 | 0.41 | 0.41 | 93 | 1012.3 |
| 20260505085114 | 13 | 87 | 0.0 | 0.0 | 0.18 | 0.38 | 0.38 | 93 | 1012.6 |
| 20260505084612 | 13 | 110 | 0.0 | 0.0 | 0.13 | 0.36 | 0.36 | 93 | 1012.8 |
| 20260505084110 | 13 | 150 | 0.0 | 0.0 | 0.13 | 0.36 | 0.36 | 93 | 1012.8 |
| 20260505083607 | 13 | 135 | 0.0 | 1.6 | 0.18 | 0.33 | 0.33 | 93 | 1013.0 |
| 20260505083103 | 13 | 113 | 0.0 | 0.0 | 0.18 | 0.33 | 0.33 | 93 | 1013.3 |
| 20260505082559 | 13 | 189 | 3.2 | 3.2 | 0.13 | 0.30 | 0.30 | 93 | 1013.4 |
| 20260505082056 | 13 | 169 | 1.6 | 1.6 | 0.30 | 0.30 | 0.30 | 93 | 1013.3 |
| 20260505081553 | 13 | 143 | 1.6 | 3.2 | 0.18 | 0.28 | 0.28 | 94 | 1013.4 |
| 20260505081050 | 13 | 136 | 0.0 | 1.6 | 0.13 | 0.25 | 0.25 | 94 | 1013.7 |
| 20260505080546 | 13 | 190 | 0.0 | 1.6 | 0.13 | 0.25 | 0.25 | 94 | 1013.9 |
| 20260505080043 | 13 | 160 | 3.2 | 3.2 | 0.18 | 0.23 | 0.23 | 93 | 1013.9 |
| 20260505075538 | 13 | 166 | 3.2 | 4.8 | 0.30 | 0.23 | 0.23 | 93 | 1013.9 |
| 20260505075036 | 13 | 158 | 6.4 | 8.0 | 0.30 | 0.20 | 0.20 | 93 | 1014.1 |
| 20260505074533 | 13 | 159 | 3.2 | 4.8 | 0.36 | 0.18 | 0.18 | 93 | 1014.1 |
| 20260505074030 | 13 | 107 | 0.0 | 0.0 | 0.30 | 0.15 | 0.15 | 93 | 1014.2 |
| 20260505073527 | 13 | 130 | 0.0 | 0.0 | 0.30 | 0.13 | 0.13 | 93 | 1014.4 |
| 20260505073026 | 13 | 120 | 1.6 | 1.6 | 0.18 | 0.10 | 0.10 | 93 | 1014.5 |
| 20260505072521 | 13 | 137 | 1.6 | 1.6 | 0.13 | 0.08 | 0.08 | 93 | 1014.5 |
| 20260505072017 | 13 | 149 | 0.0 | 0.0 | 0.30 | 0.08 | 0.08 | 93 | 1014.6 |
| 20260505071513 | 13 | 133 | 0.0 | 0.0 | 0.18 | 0.05 | 0.05 | 93 | 1014.2 |
| 20260505071011 | 13 | 105 | 0.0 | 0.0 | 0.13 | 0.03 | 0.03 | 93 | 1014.2 |
| 20260505070508 | 13 | 124 | 1.6 | 1.6 | 0.13 | 0.03 | 0.03 | 93 | 1014.4 |
| 20260505070004 | 13 | 104 | 0.0 | 0.0 | 0.18 | 0.46 | 0.46 | 93 | 1014.5 |
| 20260505065500 | 13 | 94 | 0.0 | 1.6 | 0.30 | 0.46 | 0.46 | 93 | 1014.2 |
| 20260505064957 | 13 | 111 | 0.0 | 0.0 | 0.13 | 0.43 | 0.43 | 93 | 1014.0 |
| 20260505064453 | 13 | 166 | 1.6 | 1.6 | 0.30 | 0.43 | 0.43 | 93 | 1014.4 |
| 20260505063952 | 13 | 121 | 0.0 | 0.0 | 0.30 | 0.41 | 0.41 | 93 | 1014.4 |
| 20260505063448 | 13 | 137 | 0.0 | 0.0 | 0.30 | 0.38 | 0.38 | 93 | 1014.5 |
| 20260505062945 | 13 | 103 | 0.0 | 0.0 | 0.18 | 0.36 | 0.36 | 93 | 1014.6 |
| 20260505062442 | 13 | 124 | 0.0 | 0.0 | 0.13 | 0.33 | 0.33 | 93 | 1014.5 |
| 20260505061939 | 13 | 101 | 0.0 | 0.0 | 0.13 | 0.33 | 0.33 | 93 | 1014.6 |
| 20260505061437 | 13 | 116 | 0.0 | 1.6 | 0.00 | 0.30 | 0.30 | 92 | 1014.4 |
| 20260505060934 | 13 | 139 | 0.0 | 0.0 | 0.00 | 0.30 | 0.30 | 92 | 1014.4 |
| 20260505060431 | 13 | 115 | 0.0 | 0.0 | 0.18 | 0.30 | 0.30 | 92 | 1014.3 |
| 20260505055927 | 13 | 5 | 1.6 | 3.2 | 0.18 | 0.30 | 0.30 | 92 | 1014.2 |
| 20260505055424 | 13 | 101 | 0.0 | 0.0 | 0.00 | 0.28 | 0.28 | 92 | 1013.9 |
| 20260505054920 | 13 | 70 | 0.0 | 0.0 | 0.00 | 0.28 | 0.28 | 92 | 1014.1 |
| 20260505054418 | 13 | 126 | 0.0 | 1.6 | 0.00 | 0.28 | 0.28 | 92 | 1013.9 |
| 20260505053916 | 13 | 105 | 0.0 | 0.0 | 0.00 | 0.28 | 0.28 | 92 | 1014.1 |
| 20260505053412 | 13 | 78 | 0.0 | 0.0 | 0.00 | 0.28 | 0.28 | 92 | 1014.1 |
| 20260505052909 | 13 | 93 | 0.0 | 0.0 | 0.18 | 0.28 | 0.28 | 91 | 1013.7 |
| 20260505052406 | 13 | 115 | 0.0 | 0.0 | 0.18 | 0.28 | 0.28 | 91 | 1014.0 |
| 20260505051903 | 13 | 140 | 1.6 | 1.6 | 0.00 | 0.25 | 0.25 | 90 | 1013.7 |
| 20260505051401 | 13 | 158 | 3.2 | 3.2 | 0.00 | 0.25 | 0.25 | 90 | 1013.9 |
| 20260505050859 | 13 | 162 | 3.2 | 3.2 | 0.00 | 0.25 | 0.25 | 89 | 1013.7 |
| 20260505050357 | 13 | 195 | 6.4 | 8.0 | 0.13 | 0.25 | 0.25 | 88 | 1013.9 |
| 20260505041324 | 13 | 156 | 4.8 | 8.0 | 0.18 | 0.13 | 0.13 | 83 | 1014.2 |
| 20260505040821 | 14 | 202 | 6.4 | 11.3 | 0.18 | 0.13 | 0.13 | 80 | 1014.2 |
| 20260505040319 | 14 | 220 | 11.3 | 17.7 | 0.00 | 0.10 | 0.10 | 78 | 1014.1 |
| 20260505035815 | 14 | 244 | 6.4 | 9.7 | 0.00 | 0.10 | 0.10 | 79 | 1014.2 |
| 20260505035311 | 13 | 131 | 1.6 | 1.6 | 0.00 | 0.10 | 0.10 | 84 | 1014.0 |
| 20260505034809 | 13 | 266 | 1.6 | 3.2 | 0.00 | 0.10 | 0.10 | 85 | 1014.0 |
| 20260505034305 | 13 | 93 | 0.0 | 0.0 | 0.00 | 0.10 | 0.10 | 85 | 1013.3 |
| 20260505033802 | 13 | 223 | 3.2 | 4.8 | 0.00 | 0.10 | 0.10 | 87 | 1013.2 |
| 20260505033259 | 13 | 100 | 0.0 | 0.0 | 0.00 | 0.10 | 0.10 | 89 | 1012.9 |
| 20260505032758 | 13 | 128 | 0.0 | 0.0 | 0.00 | 0.10 | 0.10 | 89 | 1012.9 |
| 20260505032253 | 13 | 132 | 0.0 | 0.0 | 0.00 | 0.10 | 0.10 | 90 | 1013.1 |
| 20260505031750 | 13 | 93 | 0.0 | 0.0 | 0.00 | 0.10 | 0.10 | 90 | 1012.9 |
| 20260505031246 | 13 | 110 | 0.0 | 0.0 | 0.13 | 0.10 | 0.10 | 89 | 1013.0 |
| 20260505030744 | 13 | 104 | 0.0 | 0.0 | 0.13 | 0.10 | 0.10 | 89 | 1013.3 |
| 20260505030240 | 13 | 107 | 0.0 | 0.0 | 0.00 | 0.08 | 0.08 | 88 | 1013.3 |
| 20260505025735 | 13 | 101 | 0.0 | 0.0 | 0.00 | 0.08 | 0.08 | 86 | 1013.5 |
| 20260505025234 | 13 | 117 | 0.0 | 0.0 | 0.00 | 0.08 | 0.08 | 84 | 1013.1 |
| 20260505024732 | 13 | 181 | 3.2 | 3.2 | 0.18 | 0.08 | 0.08 | 83 | 1013.2 |
| 20260505024229 | 13 | 176 | 8.0 | 9.7 | 0.18 | 0.08 | 0.08 | 81 | 1013.0 |
| 20260505023726 | 13 | 133 | 3.2 | 3.2 | 0.00 | 0.05 | 0.05 | 83 | 1013.2 |
| 20260505023223 | 13 | 161 | 8.0 | 9.7 | 0.00 | 0.05 | 0.05 | 79 | 1013.2 |
| 20260505022721 | 13 | 149 | 3.2 | 3.2 | 0.13 | 0.05 | 0.05 | 83 | 1013.5 |
| 20260505022217 | 13 | 184 | 1.6 | 1.6 | 0.13 | 0.05 | 0.05 | 83 | 1013.7 |
| 20260505021714 | 13 | 131 | 3.2 | 3.2 | 0.13 | 0.05 | 0.05 | 81 | 1013.6 |
| 20260505021211 | 13 | 133 | 3.2 | 4.8 | 0.00 | 0.03 | 0.03 | 79 | 1014.1 |
| 20260505020707 | 13 | 199 | 4.8 | 4.8 | 0.00 | 0.03 | 0.03 | 79 | 1014.3 |
| 20260505020202 | 13 | 173 | 4.8 | 4.8 | 0.00 | 0.03 | 0.03 | 80 | 1014.4 |
| 20260505015700 | 13 | 141 | 3.2 | 3.2 | 0.00 | 0.03 | 0.03 | 78 | 1014.2 |
| 20260505015157 | 13 | 156 | 3.2 | 3.2 | 0.00 | 0.03 | 0.03 | 78 | 1014.3 |
| 20260505014654 | 13 | 183 | 8.0 | 9.7 | 0.00 | 0.03 | 0.03 | 73 | 1014.1 |
| 20260505014151 | 14 | 165 | 8.0 | 11.3 | 0.00 | 0.03 | 0.03 | 70 | 1014.1 |
| 20260505013648 | 15 | 197 | 4.8 | 8.0 | 0.18 | 0.03 | 0.03 | 69 | 1014.3 |
| 20260505013145 | 15 | 166 | 6.4 | 9.7 | 0.18 | 0.03 | 0.03 | 67 | 1014.0 |
| 20260505012643 | 16 | 173 | 4.8 | 8.0 | 0.00 | 0.00 | 0.00 | 60 | 1014.0 |
| 20260505012140 | 17 | 233 | 8.0 | 11.3 | 0.00 | 0.00 | 0.00 | 53 | 1013.7 |
| 20260505011636 | 17 | 197 | 4.8 | 8.0 | 0.00 | 0.00 | 0.00 | 48 | 1013.4 |
| 20260505011133 | 17 | 179 | 4.8 | 9.7 | 0.00 | 0.00 | 0.00 | 48 | 1013.4 |
| 20260505010628 | 17 | 168 | 3.2 | 3.2 | 0.00 | 0.00 | 0.00 | 50 | 1013.3 |
| 20260505010125 | 18 | 190 | 8.0 | 11.3 | 0.00 | 0.00 | 0.00 | 50 | 1013.3 |
| 20260505005620 | 18 | 194 | 4.8 | 4.8 | 0.00 | 0.00 | 0.00 | 49 | 1013.4 |
| 20260505005118 | 19 | 217 | 6.4 | 8.0 | 0.00 | 0.00 | 0.00 | 43 | 1013.1 |
| 20260505004615 | 19 | 190 | 8.0 | 12.9 | 0.00 | 0.00 | 0.00 | 42 | 1013.2 |
| 20260505004112 | 19 | 202 | 6.4 | 9.7 | 0.00 | 0.00 | 0.00 | 41 | 1013.3 |
| 20260505003610 | 20 | 140 | 3.2 | 4.8 | 0.00 | 0.00 | 0.00 | 42 | 1013.3 |
| 20260505003107 | 20 | 170 | 4.8 | 4.8 | 0.00 | 0.00 | 0.00 | 43 | 1013.2 |
| 20260505002602 | 19 | 216 | 9.7 | 12.9 | 0.00 | 0.00 | 0.00 | 44 | 1013.2 |
| 20260505002101 | 20 | 196 | 8.0 | 9.7 | 0.00 | 0.00 | 0.00 | 44 | 1013.4 |
| 20260505001557 | 20 | 235 | 4.8 | 4.8 | 0.00 | 0.00 | 0.00 | 45 | 1013.3 |
| 20260505001055 | 19 | 151 | 4.8 | 4.8 | 0.00 | 0.00 | 0.00 | 46 | 1013.2 |
| 20260505000552 | 19 | 168 | 3.2 | 3.2 | 0.00 | 0.00 | 0.00 | 44 | 1012.8 |
| 20260505000049 | 19 | 185 | 3.2 | 4.8 | 0.00 | 0.00 | 0.00 | 44 | 1013.0 |
| 20260504235546 | 19 | 174 | 8.0 | 9.7 | 0.00 | 0.00 | 0.00 | 42 | 1012.8 |
| 20260504235043 | 19 | 184 | 6.4 | 9.7 | 0.00 | 0.00 | 0.00 | 47 | 1012.8 |
| 20260504234540 | 19 | 147 | 4.8 | 9.7 | 0.00 | 0.00 | 0.00 | 47 | 1012.8 |
| 20260504234037 | 19 | 147 | 8.0 | 9.7 | 0.00 | 0.00 | 0.00 | 45 | 1013.0 |
| 20260504233532 | 19 | 164 | 6.4 | 9.7 | 0.00 | 0.00 | 0.00 | 44 | 1013.0 |
| 20260504233029 | 19 | 178 | 8.0 | 11.3 | 0.00 | 0.00 | 0.00 | 44 | 1013.4 |
| 20260504232526 | 20 | 192 | 4.8 | 4.8 | 0.00 | 0.00 | 0.00 | 43 | 1013.6 |
| 20260504232024 | 20 | 134 | 6.4 | 11.3 | 0.00 | 0.00 | 0.00 | 40 | 1013.7 |
| 20260504231520 | 20 | 175 | 4.8 | 8.0 | 0.00 | 0.00 | 0.00 | 38 | 1013.5 |
| 20260504231017 | 22 | 234 | 3.2 | 8.0 | 0.00 | 0.00 | 0.00 | 32 | 1014.1 |
| 20260504230513 | 22 | 170 | 3.2 | 3.2 | 0.00 | 0.00 | 0.00 | 30 | 1013.6 |
| 20260504230012 | 22 | 168 | 16.1 | 20.9 | 0.00 | 0.00 | 0.00 | 29 | 1013.2 |
| 20260504225508 | 22 | 174 | 3.2 | 4.8 | 0.00 | 0.00 | 0.00 | 28 | 1013.1 |
| 20260504225005 | 23 | 190 | 4.8 | 11.3 | 0.00 | 0.00 | 0.00 | 29 | 1013.4 |